createdAt,value
2018-12-21T00:03:00.824Z,5.00
2018-12-21T00:08:04.447Z,5.10
2018-12-21T00:13:08.101Z,5.20
2018-12-21T00:18:11.600Z,5.30
2018-12-21T00:23:15.106Z,5.40
2018-12-21T00:28:18.597Z,5.40
2018-12-21T00:33:27.678Z,5.40
2018-12-21T00:38:36.675Z,5.40
2018-12-21T00:43:44.410Z,5.40
2018-12-21T00:48:49.278Z,5.40
2018-12-21T00:53:53.076Z,5.40
2018-12-21T00:58:56.596Z,5.40
2018-12-21T01:04:00.202Z,5.40
2018-12-21T01:09:05.289Z,5.30
2018-12-21T01:14:09.187Z,5.40
2018-12-21T01:19:12.761Z,5.40
2018-12-21T01:24:17.458Z,5.30
2018-12-21T01:29:20.956Z,5.30
2018-12-21T01:34:24.542Z,5.10
2018-12-21T01:39:28.158Z,5.10
2018-12-21T01:44:31.635Z,5.10
2018-12-21T01:49:35.425Z,5.00
2018-12-21T01:54:38.900Z,4.90
2018-12-21T01:59:42.391Z,4.90
2018-12-21T02:04:46.059Z,5.10
2018-12-21T02:09:49.581Z,5.20
2018-12-21T02:14:53.157Z,5.20
2018-12-21T02:19:56.760Z,5.20
2018-12-21T02:25:00.232Z,5.20
2018-12-21T02:30:04.073Z,5.10
2018-12-21T02:35:07.810Z,5.20
2018-12-21T02:40:12.692Z,5.20
2018-12-21T02:45:17.049Z,5.30
2018-12-21T02:50:21.529Z,5.40
2018-12-21T02:55:25.443Z,5.50
2018-12-21T03:00:29.480Z,5.50
2018-12-21T03:05:32.990Z,5.50
2018-12-21T03:10:36.464Z,5.70
2018-12-21T03:15:39.991Z,5.70
2018-12-21T03:20:43.511Z,5.80
2018-12-21T03:25:47.186Z,5.70
2018-12-21T03:30:50.693Z,5.70
2018-12-21T03:35:54.406Z,5.60
2018-12-21T03:40:57.963Z,5.60
2018-12-21T03:46:01.533Z,5.60
2018-12-21T03:51:05.057Z,5.60
2018-12-21T03:56:08.609Z,5.60
2018-12-21T04:01:12.078Z,5.50
2018-12-21T04:06:15.741Z,5.60
2018-12-21T04:11:19.334Z,5.60
2018-12-21T04:16:22.904Z,5.60
2018-12-21T04:21:26.626Z,5.60
2018-12-21T04:26:30.135Z,5.50
2018-12-21T04:31:33.646Z,5.70
2018-12-21T04:36:37.463Z,5.70
2018-12-21T04:41:41.505Z,5.60
2018-12-21T04:46:45.624Z,5.50
2018-12-21T04:51:49.767Z,5.50
2018-12-21T04:56:53.928Z,5.70
2018-12-21T05:01:57.814Z,5.70
2018-12-21T05:07:01.711Z,5.80
2018-12-21T05:12:05.709Z,5.90
2018-12-21T05:17:09.492Z,5.80
2018-12-21T05:22:13.125Z,5.90
2018-12-21T05:27:16.647Z,5.90
2018-12-21T05:32:20.137Z,6.10
2018-12-21T05:37:23.670Z,6.40
2018-12-21T05:42:27.308Z,6.40
2018-12-21T05:47:30.997Z,6.60
2018-12-21T05:52:34.460Z,6.60
2018-12-21T05:57:37.995Z,6.60
2018-12-21T06:02:41.522Z,6.60
2018-12-21T06:07:45.082Z,6.70
2018-12-21T06:12:53.689Z,6.70
2018-12-21T06:17:57.536Z,6.80
2018-12-21T06:23:09.245Z,6.80
2018-12-21T06:28:07.177Z,6.90
2018-12-21T06:33:11.622Z,6.70
2018-12-21T06:38:15.696Z,6.70
2018-12-21T06:43:19.411Z,6.50
2018-12-21T06:48:22.916Z,6.30
2018-12-21T06:53:26.406Z,6.20
2018-12-21T06:58:29.864Z,6.10
2018-12-21T07:03:33.462Z,6.10
2018-12-21T07:08:37.207Z,6.10
2018-12-21T07:13:40.669Z,6.10
2018-12-21T07:18:44.273Z,6.00
2018-12-21T07:23:47.829Z,5.90
2018-12-21T07:28:52.226Z,5.90
2018-12-21T07:33:55.825Z,5.80
2018-12-21T07:38:59.285Z,5.90
2018-12-21T07:44:02.804Z,5.90
2018-12-21T07:49:06.329Z,5.90
2018-12-21T07:54:09.797Z,6.00
2018-12-21T07:59:13.438Z,6.00
2018-12-21T08:04:17.104Z,6.00
2018-12-21T08:09:21.486Z,6.10
2018-12-21T08:14:25.044Z,6.10
2018-12-21T08:19:28.507Z,6.10
2018-12-21T08:24:32.191Z,6.20
2018-12-21T08:29:35.995Z,6.20
2018-12-21T08:34:39.533Z,6.20
2018-12-21T08:39:43.179Z,6.30
2018-12-21T08:44:46.786Z,6.30
2018-12-21T08:49:51.959Z,6.30
2018-12-21T08:54:55.572Z,6.40
2018-12-21T08:59:59.979Z,6.30
2018-12-21T09:05:03.854Z,6.30
2018-12-21T09:10:09.702Z,6.30
2018-12-21T09:15:17.049Z,6.40
2018-12-21T09:25:34.904Z,6.50
2018-12-21T09:30:38.511Z,6.60
2018-12-21T09:35:42.550Z,6.70
2018-12-21T09:40:46.536Z,6.80
2018-12-21T09:45:50.438Z,6.80
2018-12-21T09:50:54.209Z,6.80
2018-12-21T09:55:58.544Z,6.90
2018-12-21T10:01:02.562Z,6.90
2018-12-21T10:06:06.690Z,7.00
2018-12-21T10:11:11.142Z,7.10
2018-12-21T10:16:15.303Z,7.10
2018-12-21T10:21:18.831Z,7.20
2018-12-21T10:26:22.540Z,7.30
2018-12-21T10:31:27.151Z,7.30
2018-12-21T10:36:30.634Z,7.40
2018-12-21T10:41:34.101Z,7.50
2018-12-21T10:46:37.595Z,7.70
2018-12-21T10:51:41.138Z,7.70
2018-12-21T10:56:44.652Z,7.80
2018-12-21T11:01:48.136Z,7.90
2018-12-21T11:06:51.745Z,7.90
2018-12-21T11:11:56.108Z,7.90
2018-12-21T11:16:59.764Z,8.00
2018-12-21T11:22:05.524Z,8.10
2018-12-21T11:27:09.335Z,8.20
2018-12-21T11:32:13.753Z,8.20
2018-12-21T11:37:18.071Z,8.30
2018-12-21T11:42:21.914Z,8.40
2018-12-21T11:47:25.405Z,8.50
2018-12-21T11:52:28.877Z,8.40
2018-12-21T11:57:32.476Z,8.50
2018-12-21T12:02:36.168Z,8.50
2018-12-21T12:07:39.636Z,8.50
2018-12-21T12:12:43.324Z,8.40
2018-12-21T12:17:46.914Z,8.40
2018-12-21T12:22:51.105Z,8.50
2018-12-21T12:27:54.720Z,8.40
2018-12-21T12:32:58.216Z,8.40
2018-12-21T12:38:01.910Z,8.40
2018-12-21T12:43:09.084Z,8.30
2018-12-21T12:48:14.007Z,8.30
2018-12-21T12:53:17.624Z,8.30
2018-12-21T12:58:21.295Z,8.40
2018-12-21T13:03:24.995Z,8.40
2018-12-21T13:08:28.541Z,8.50
2018-12-21T13:13:32.124Z,8.50
2018-12-21T13:18:35.907Z,8.50
2018-12-21T13:23:39.816Z,8.50
2018-12-21T13:28:43.912Z,8.50
2018-12-21T13:33:48.079Z,8.60
2018-12-21T13:38:52.119Z,8.60
2018-12-21T13:43:56.753Z,8.50
2018-12-21T13:49:00.451Z,8.50
2018-12-21T13:54:04.019Z,8.50
2018-12-21T13:59:07.926Z,8.40
2018-12-21T14:04:11.552Z,8.50
2018-12-21T14:09:15.299Z,8.50
2018-12-21T14:14:19.718Z,8.50
2018-12-21T14:19:23.405Z,8.50
2018-12-21T14:24:27.034Z,8.40
2018-12-21T14:29:30.754Z,8.30
2018-12-21T14:34:34.330Z,8.30
2018-12-21T14:39:37.889Z,8.30
2018-12-21T14:44:41.389Z,8.30
2018-12-21T14:49:46.945Z,8.40
2018-12-21T14:54:52.017Z,8.40
2018-12-21T14:59:56.512Z,8.50
2018-12-21T15:05:00.681Z,8.50
2018-12-21T15:10:05.341Z,8.50
2018-12-21T15:15:10.730Z,8.50
2018-12-21T15:20:15.373Z,8.50
2018-12-21T15:25:19.719Z,8.50
2018-12-21T15:30:23.550Z,8.60
2018-12-21T15:35:27.660Z,8.50
2018-12-21T15:40:31.443Z,8.60
2018-12-21T15:45:35.297Z,8.60
2018-12-21T15:50:39.646Z,8.70
2018-12-21T15:55:43.920Z,8.70
2018-12-21T16:00:48.072Z,8.70
2018-12-21T16:05:52.340Z,8.70
2018-12-21T16:10:56.878Z,8.90
2018-12-21T16:16:00.672Z,8.90
2018-12-21T16:21:04.325Z,9.00
2018-12-21T16:26:08.375Z,8.90
2018-12-21T16:31:11.844Z,9.00
2018-12-21T16:36:16.826Z,9.00
2018-12-21T16:41:21.442Z,9.10
2018-12-21T16:46:26.762Z,9.10
2018-12-21T16:51:30.892Z,9.20
2018-12-21T16:56:35.406Z,9.30
2018-12-21T17:01:40.127Z,9.40
2018-12-21T17:06:44.192Z,9.40
2018-12-21T17:11:48.579Z,9.50
2018-12-21T17:16:52.831Z,9.50
2018-12-21T17:21:57.010Z,9.60
2018-12-21T17:27:01.466Z,9.60
2018-12-21T17:32:05.774Z,9.70
2018-12-21T17:37:11.693Z,9.70
2018-12-21T17:42:16.054Z,9.70
2018-12-21T17:47:20.774Z,9.80
2018-12-21T17:52:25.911Z,9.80
2018-12-21T17:57:29.496Z,9.80
2018-12-21T18:02:33.367Z,9.80
2018-12-21T18:07:37.490Z,9.90
2018-12-21T18:12:42.092Z,9.90
2018-12-21T18:17:46.476Z,9.90
2018-12-21T18:22:51.258Z,10.00
2018-12-21T18:27:58.448Z,10.10
2018-12-21T18:33:10.533Z,10.10
2018-12-21T18:38:14.475Z,10.00
2018-12-21T18:43:19.439Z,9.90
2018-12-21T18:48:23.469Z,10.00
2018-12-21T18:53:27.663Z,9.90
2018-12-21T18:58:31.173Z,9.90
2018-12-21T19:03:36.281Z,10.00
2018-12-21T19:08:39.860Z,10.00
2018-12-21T19:13:43.426Z,10.00
2018-12-21T19:18:46.900Z,9.90
2018-12-21T19:23:50.475Z,9.90
2018-12-21T19:28:53.955Z,9.90
2018-12-21T19:33:57.725Z,10.00
2018-12-21T19:39:01.501Z,9.90
2018-12-21T19:44:05.105Z,9.90
2018-12-21T19:49:09.286Z,9.90
2018-12-21T19:54:17.658Z,9.80
2018-12-21T19:59:21.274Z,9.80
2018-12-21T20:04:25.308Z,10.00
2018-12-21T20:09:30.819Z,10.10
2018-12-21T20:14:34.925Z,10.20
2018-12-21T20:19:38.876Z,10.10
2018-12-21T20:24:43.443Z,10.10
2018-12-21T20:29:47.109Z,10.00
2018-12-21T20:34:50.807Z,9.90
2018-12-21T20:39:55.762Z,9.90
2018-12-21T20:44:59.618Z,10.00
2018-12-21T20:50:03.616Z,10.00
2018-12-21T20:55:08.911Z,10.10
2018-12-21T21:00:16.424Z,10.00
2018-12-21T21:05:21.083Z,10.00
2018-12-21T21:10:25.706Z,10.00
2018-12-21T21:15:29.315Z,10.00
2018-12-21T21:20:34.215Z,10.00
2018-12-21T21:25:38.173Z,10.00
2018-12-21T21:30:43.340Z,9.90
2018-12-21T21:35:48.087Z,10.00
2018-12-21T21:40:51.826Z,10.00
2018-12-21T21:45:55.320Z,9.90
2018-12-21T21:50:59.056Z,9.90
2018-12-21T21:56:02.818Z,9.90
2018-12-21T22:01:06.514Z,9.90
2018-12-21T22:06:10.332Z,9.80
2018-12-21T22:16:27.217Z,9.70
2018-12-21T22:21:30.836Z,9.70
2018-12-21T22:26:34.420Z,9.60
2018-12-21T22:31:38.068Z,9.60
2018-12-21T22:36:41.687Z,9.60
2018-12-21T22:41:45.219Z,9.60
2018-12-21T22:46:48.690Z,9.50
2018-12-21T22:51:52.409Z,9.50
2018-12-21T22:56:56.094Z,9.60
2018-12-21T23:02:00.091Z,9.60
2018-12-21T23:07:04.281Z,9.60
2018-12-21T23:12:08.281Z,9.60
2018-12-21T23:17:12.167Z,9.60
2018-12-21T23:22:16.259Z,9.60
2018-12-21T23:27:20.194Z,9.60
2018-12-21T23:32:24.331Z,9.50
2018-12-21T23:37:27.916Z,9.40
2018-12-21T23:42:31.490Z,9.40
2018-12-21T23:47:35.334Z,9.40
2018-12-21T23:52:38.909Z,9.40
2018-12-21T23:57:42.417Z,9.40
